createdAt,value
2022-11-23T00:04:22.652Z,6.94
2022-11-23T00:09:24.105Z,6.96
2022-11-23T00:14:25.626Z,7.17
2022-11-23T00:19:27.071Z,7.14
2022-11-23T00:24:28.591Z,7.12
2022-11-23T00:29:30.254Z,7.13
2022-11-23T00:34:32.262Z,7.13
2022-11-23T00:39:33.782Z,6.87
2022-11-23T00:44:35.311Z,6.69
2022-11-23T00:49:36.754Z,6.54
2022-11-23T00:54:38.247Z,6.60
2022-11-23T00:59:39.811Z,6.58
2022-11-23T01:04:41.472Z,6.65
2022-11-23T01:09:43.040Z,6.69
2022-11-23T01:14:44.471Z,6.72
2022-11-23T01:19:45.884Z,6.74
2022-11-23T01:24:49.602Z,6.77
2022-11-23T01:29:51.068Z,6.82
2022-11-23T01:34:54.615Z,6.80
2022-11-23T01:39:56.084Z,6.56
2022-11-23T01:45:32.351Z,6.75
2022-11-23T01:50:33.834Z,6.65
2022-11-23T01:55:36.453Z,6.68
2022-11-23T02:00:39.096Z,6.59
2022-11-23T02:05:47.389Z,6.41
2022-11-23T02:10:49.880Z,6.27
2022-11-23T02:15:53.087Z,6.27
2022-11-23T02:20:56.584Z,6.21
2022-11-23T02:26:09.643Z,6.18
2022-11-23T02:31:11.196Z,6.19
2022-11-23T02:36:37.299Z,6.16
2022-11-23T02:41:48.398Z,6.08
2022-11-23T02:46:50.990Z,5.98
2022-11-23T02:51:52.847Z,6.04
2022-11-23T02:56:54.358Z,5.96
2022-11-23T03:01:55.809Z,6.02
2022-11-23T03:06:57.827Z,5.79
2022-11-23T03:11:59.321Z,5.79
2022-11-23T03:17:02.857Z,5.82
2022-11-23T03:22:09.715Z,6.01
2022-11-23T03:27:11.628Z,6.15
2022-11-23T03:32:14.727Z,5.73
2022-11-23T03:37:19.913Z,5.61
2022-11-23T03:42:22.167Z,5.58
2022-11-23T03:47:23.834Z,5.53
2022-11-23T03:52:25.285Z,5.45
2022-11-23T03:57:26.704Z,5.66
2022-11-23T04:02:28.898Z,5.26
2022-11-23T04:07:40.720Z,5.41
2022-11-23T04:12:42.415Z,5.10
2022-11-23T04:17:43.858Z,4.86
2022-11-23T04:22:45.470Z,4.84
2022-11-23T04:27:47.008Z,4.78
2022-11-23T04:32:48.764Z,4.78
2022-11-23T04:37:50.384Z,4.83
2022-11-23T04:42:53.823Z,4.83
2022-11-23T04:47:58.186Z,4.83
2022-11-23T04:53:00.961Z,4.88
2022-11-23T04:58:10.965Z,4.93
2022-11-23T05:03:13.741Z,4.88
2022-11-23T05:08:16.780Z,4.81
2022-11-23T05:13:27.327Z,4.70
2022-11-23T05:18:28.927Z,4.72
2022-11-23T05:23:30.527Z,4.75
2022-11-23T05:28:41.622Z,4.69
2022-11-23T05:33:47.202Z,4.41
2022-11-23T05:38:50.992Z,4.27
2022-11-23T05:43:59.949Z,3.98
2022-11-23T05:49:03.874Z,4.07
2022-11-23T05:54:10.243Z,4.05
2022-11-23T05:59:24.520Z,3.98
2022-11-23T06:04:32.302Z,4.06
2022-11-23T06:09:34.830Z,4.20
2022-11-23T06:14:41.286Z,4.37
2022-11-23T06:19:43.343Z,3.98
2022-11-23T06:24:46.232Z,3.95
2022-11-23T06:30:10.380Z,4.03
2022-11-23T06:35:12.532Z,4.02
2022-11-23T06:40:16.255Z,4.12
2022-11-23T06:45:17.827Z,4.21
2022-11-23T06:50:20.472Z,4.27
2022-11-23T06:55:26.268Z,4.31
2022-11-23T07:00:27.833Z,4.33
2022-11-23T07:05:30.608Z,4.38
2022-11-23T07:10:32.795Z,4.40
2022-11-23T07:15:36.874Z,4.27
2022-11-23T07:20:38.540Z,4.27
2022-11-23T07:25:40.765Z,4.25
2022-11-23T07:30:42.358Z,4.42
2022-11-23T07:35:44.340Z,4.46
2022-11-23T07:40:49.171Z,4.52
2022-11-23T07:46:03.816Z,4.68
2022-11-23T07:51:05.259Z,4.79
2022-11-23T07:56:07.063Z,4.93
2022-11-23T08:01:08.483Z,5.12
2022-11-23T08:06:10.317Z,5.29
2022-11-23T08:11:12.076Z,5.49
2022-11-23T08:16:13.491Z,5.76
2022-11-23T08:21:14.862Z,5.97
2022-11-23T08:26:16.278Z,6.02
2022-11-23T08:31:17.742Z,6.23
2022-11-23T08:36:19.140Z,6.43
2022-11-23T08:41:20.734Z,6.65
2022-11-23T08:46:22.207Z,6.85
2022-11-23T08:51:23.627Z,7.11
2022-11-23T08:56:25.081Z,7.35
2022-11-23T09:01:26.546Z,7.47
2022-11-23T09:06:28.105Z,7.48
2022-11-23T09:11:29.496Z,7.55
2022-11-23T09:16:33.919Z,7.62
2022-11-23T09:21:35.656Z,7.67
2022-11-23T09:26:37.151Z,7.99
2022-11-23T09:31:38.751Z,8.13
2022-11-23T09:36:40.256Z,8.34
2022-11-23T09:42:00.284Z,8.61
2022-11-23T09:47:23.115Z,8.79
2022-11-23T09:52:25.596Z,8.85
2022-11-23T09:57:31.383Z,8.97
2022-11-23T10:02:39.726Z,9.29
2022-11-23T10:07:48.585Z,9.92
2022-11-23T10:13:10.039Z,10.52
2022-11-23T10:18:43.646Z,11.51
2022-11-23T10:24:05.130Z,12.92
2022-11-23T10:29:14.435Z,15.32
2022-11-23T10:34:31.158Z,17.37
2022-11-23T10:39:32.762Z,16.93
2022-11-23T10:44:37.754Z,15.72
2022-11-23T10:49:39.243Z,15.00
2022-11-23T10:54:52.666Z,14.64
2022-11-23T11:00:23.674Z,15.57
2022-11-23T11:11:22.756Z,19.99
2022-11-23T11:16:29.715Z,21.73
2022-11-23T11:21:35.549Z,22.82
2022-11-23T11:26:51.425Z,23.77
2022-11-23T11:32:06.128Z,24.38
2022-11-23T11:37:14.954Z,24.53
2022-11-23T11:42:36.491Z,24.63
2022-11-23T11:47:45.891Z,25.26
2022-11-23T11:52:50.945Z,22.60
2022-11-23T11:57:59.677Z,22.95
2022-11-23T12:03:06.835Z,24.34
2022-11-23T12:08:18.044Z,24.67
2022-11-23T12:13:22.862Z,24.95
2022-11-23T12:19:01.180Z,25.42
2022-11-23T12:24:05.515Z,25.50
2022-11-23T12:29:16.011Z,25.45
2022-11-23T12:34:23.269Z,24.97
2022-11-23T12:39:43.420Z,24.57
2022-11-23T12:44:53.989Z,23.93
2022-11-23T12:50:00.489Z,23.08
2022-11-23T12:55:20.419Z,22.45
2022-11-23T13:00:23.425Z,21.62
2022-11-23T13:06:00.251Z,21.56
2022-11-23T13:11:39.017Z,21.38
2022-11-23T13:17:05.800Z,20.72
2022-11-23T13:22:14.488Z,20.28
2022-11-23T13:27:15.921Z,20.16
2022-11-23T13:33:00.510Z,19.95
2022-11-23T13:38:13.855Z,19.69
2022-11-23T13:43:20.769Z,19.39
2022-11-23T13:53:52.539Z,18.22
2022-11-23T13:59:25.346Z,16.62
2022-11-23T14:04:29.660Z,15.90
2022-11-23T14:09:36.349Z,15.30
2022-11-23T14:14:43.684Z,14.91
2022-11-23T14:19:57.343Z,14.50
2022-11-23T14:25:17.420Z,14.11
2022-11-23T14:30:41.035Z,13.74
2022-11-23T14:35:54.030Z,13.53
2022-11-23T14:41:07.979Z,13.35
2022-11-23T14:46:16.431Z,13.26
2022-11-23T14:51:20.687Z,13.10
2022-11-23T14:56:22.067Z,13.03
2022-11-23T15:01:25.649Z,13.02
2022-11-23T15:06:32.914Z,12.97
2022-11-23T15:11:37.055Z,12.75
2022-11-23T15:16:40.159Z,12.66
2022-11-23T15:21:44.680Z,12.58
2022-11-23T15:26:49.393Z,12.22
2022-11-23T15:32:14.113Z,11.85
2022-11-23T15:37:12.970Z,11.59
2022-11-23T15:42:19.386Z,11.38
2022-11-23T15:47:26.777Z,11.23
2022-11-23T15:52:33.992Z,11.02
2022-11-23T15:57:35.440Z,10.86
2022-11-23T16:02:37.165Z,10.69
2022-11-23T16:08:00.009Z,10.62
2022-11-23T16:13:03.906Z,10.69
2022-11-23T16:18:26.911Z,10.60
2022-11-23T16:23:55.497Z,10.63
2022-11-23T16:28:59.275Z,10.70
2022-11-23T16:34:00.694Z,10.70
2022-11-23T16:39:05.632Z,10.65
2022-11-23T16:44:07.420Z,10.65
2022-11-23T16:49:15.890Z,10.58
2022-11-23T16:54:21.877Z,10.06
2022-11-23T16:59:26.228Z,9.40
2022-11-23T17:04:27.790Z,9.40
2022-11-23T17:09:29.427Z,9.64
2022-11-23T17:14:37.791Z,9.58
2022-11-23T17:19:39.203Z,9.27
2022-11-23T17:24:40.707Z,8.92
2022-11-23T17:29:43.828Z,8.87
2022-11-23T17:34:45.495Z,8.57
2022-11-23T17:39:48.039Z,8.28
2022-11-23T17:44:49.740Z,8.20
2022-11-23T17:49:51.218Z,7.99
2022-11-23T17:54:52.743Z,7.91
2022-11-23T17:59:54.533Z,7.94
2022-11-23T18:04:56.011Z,8.13
2022-11-23T18:09:57.516Z,8.28
2022-11-23T18:14:58.988Z,8.36
2022-11-23T18:20:00.384Z,8.52
2022-11-23T18:25:01.942Z,8.50
2022-11-23T18:30:04.003Z,8.45
2022-11-23T18:35:06.070Z,8.33
2022-11-23T18:40:07.947Z,8.23
2022-11-23T18:45:09.614Z,8.20
2022-11-23T18:50:11.108Z,8.34
2022-11-23T18:55:12.577Z,8.43
2022-11-23T19:00:14.306Z,8.52
2022-11-23T19:05:15.696Z,8.35
2022-11-23T19:10:18.059Z,8.08
2022-11-23T19:15:19.526Z,8.05
2022-11-23T19:20:21.882Z,8.10
2022-11-23T19:25:23.328Z,8.08
2022-11-23T19:30:24.882Z,7.81
2022-11-23T19:35:26.341Z,7.83
2022-11-23T19:40:27.790Z,7.97
2022-11-23T19:45:29.262Z,8.13
2022-11-23T19:50:30.724Z,8.22
2022-11-23T19:55:32.173Z,8.41
2022-11-23T20:00:33.618Z,8.08
2022-11-23T20:05:35.233Z,8.12
2022-11-23T20:10:36.705Z,8.24
2022-11-23T20:15:38.219Z,8.30
2022-11-23T20:20:44.039Z,8.40
2022-11-23T20:25:45.537Z,8.47
2022-11-23T20:30:50.226Z,8.37
2022-11-23T20:35:52.144Z,8.43
2022-11-23T20:40:53.517Z,8.57
2022-11-23T20:45:58.335Z,8.62
2022-11-23T20:50:59.772Z,8.60
2022-11-23T20:56:05.971Z,8.57
2022-11-23T21:01:09.838Z,8.66
2022-11-23T21:06:13.326Z,8.78
2022-11-23T21:11:20.557Z,8.88
2022-11-23T21:16:22.059Z,8.78
2022-11-23T21:21:23.596Z,8.85
2022-11-23T21:26:25.091Z,8.70
2022-11-23T21:31:27.067Z,8.76
2022-11-23T21:36:28.593Z,8.73
2022-11-23T21:41:30.062Z,8.74
2022-11-23T21:46:32.086Z,8.63
2022-11-23T21:51:34.777Z,8.54
2022-11-23T21:56:36.177Z,8.36
2022-11-23T22:01:37.993Z,8.33
2022-11-23T22:06:40.435Z,8.50
2022-11-23T22:11:43.417Z,8.36
2022-11-23T22:16:47.360Z,8.34
2022-11-23T22:21:49.038Z,8.26
2022-11-23T22:26:50.516Z,8.36
2022-11-23T22:31:51.997Z,8.44
2022-11-23T22:36:53.443Z,8.42
2022-11-23T22:41:54.872Z,8.36
2022-11-23T22:46:56.308Z,8.41
2022-11-23T22:51:57.758Z,8.49
2022-11-23T22:56:59.203Z,8.57
2022-11-23T23:02:00.741Z,8.62
2022-11-23T23:07:02.224Z,8.63
2022-11-23T23:12:03.859Z,8.68
2022-11-23T23:17:05.316Z,8.74
2022-11-23T23:22:06.850Z,8.70
2022-11-23T23:27:08.280Z,8.74
2022-11-23T23:32:09.787Z,8.78
2022-11-23T23:37:12.329Z,8.58
2022-11-23T23:42:13.802Z,8.56
2022-11-23T23:47:15.286Z,8.53
2022-11-23T23:52:16.767Z,8.57
2022-11-23T23:57:18.246Z,8.54
